Time;durP1;ratioP1;P1;durP2;ratioP2;P2;SDS_P1;SDS_P2;PMS_P1;PMS_P2;Temp;Humidity;BMP_temperature;BMP_pressure;BME280_temperature;BME280_humidity;BME280_pressure;Samples;Min_cycle;Max_cycle;Signal;HPM_P1;HPM_P2
2024/01/19 00:00:37;;;;;;;10.27;5.43;;;-1.50;99.90;;;;;;5035767;28;20038;-62
2024/01/19 00:03:04;;;;;;;11.27;5.63;;;-1.50;99.90;;;;;;5036266;28;20099;-62
2024/01/19 00:05:31;;;;;;;10.23;5.40;;;-1.50;99.90;;;;;;5034831;28;20502;-62
2024/01/19 00:07:58;;;;;;;10.13;5.22;;;-1.50;99.90;;;;;;5034020;28;20119;-61
2024/01/19 00:10:25;;;;;;;12.23;5.65;;;-1.50;99.90;;;;;;5035665;28;20521;-62
2024/01/19 00:12:52;;;;;;;8.73;5.18;;;-1.50;99.90;;;;;;5027730;28;20541;-61
2024/01/19 00:15:18;;;;;;;10.07;5.50;;;-1.50;99.90;;;;;;5027857;28;20120;-61
2024/01/19 00:17:54;;;;;;;;;;;-1.50;99.90;;;;;;5031459;28;20041;-66
2024/01/19 00:20:21;;;;;;;9.07;4.90;;;-1.50;99.90;;;;;;5017782;28;20461;-65
2024/01/19 00:22:48;;;;;;;9.32;5.10;;;-1.50;99.90;;;;;;5015333;28;20038;-65
2024/01/19 00:25:15;;;;;;;9.25;5.60;;;-1.50;99.90;;;;;;5014962;28;20450;-65
2024/01/19 00:27:42;;;;;;;8.70;5.00;;;-1.50;99.90;;;;;;4997733;28;20555;-66
2024/01/19 00:30:08;;;;;;;10.20;5.32;;;-1.50;99.90;;;;;;5015023;28;20160;-65
2024/01/19 00:32:35;;;;;;;9.52;4.45;;;-1.50;99.90;;;;;;5014922;28;20415;-66
2024/01/19 00:35:02;;;;;;;9.68;4.93;;;-1.50;99.90;;;;;;4997378;28;20444;-66
2024/01/19 00:37:29;;;;;;;7.88;5.53;;;-1.50;99.90;;;;;;5013961;28;20498;-67
2024/01/19 00:39:56;;;;;;;7.70;4.90;;;-1.50;99.90;;;;;;5013508;28;20041;-61
2024/01/19 00:42:23;;;;;;;11.50;4.70;;;-1.50;99.90;;;;;;5014797;28;20096;-61
2024/01/19 00:44:49;;;;;;;8.15;4.47;;;-1.40;99.90;;;;;;5014668;28;20042;-61
2024/01/19 00:47:16;;;;;;;6.28;4.32;;;-1.50;99.90;;;;;;5032303;28;20164;-61
2024/01/19 00:49:44;;;;;;;8.32;4.60;;;-1.50;99.90;;;;;;5034396;28;20103;-62
2024/01/19 00:52:11;;;;;;;7.93;4.32;;;-1.50;99.90;;;;;;5034267;28;20495;-62
2024/01/19 00:54:37;;;;;;;7.88;4.75;;;-1.50;99.90;;;;;;5033886;28;20103;-62
2024/01/19 00:57:04;;;;;;;7.63;4.35;;;-1.50;99.90;;;;;;5032987;28;20473;-62
2024/01/19 00:59:31;;;;;;;9.05;4.18;;;-1.50;99.90;;;;;;5034176;28;20536;-62
2024/01/19 01:01:58;;;;;;;6.75;4.05;;;-1.50;99.90;;;;;;5033229;28;20046;-62
2024/01/19 01:04:24;;;;;;;7.25;4.30;;;-1.50;99.90;;;;;;5016316;28;20045;-67
2024/01/19 01:06:51;;;;;;;8.07;4.30;;;-1.50;99.90;;;;;;5033827;28;20053;-67
2024/01/19 01:09:18;;;;;;;7.30;4.45;;;-1.50;99.90;;;;;;5032788;28;20136;-67
2024/01/19 01:11:45;;;;;;;9.07;4.28;;;-1.50;99.90;;;;;;5032988;28;20045;-67
2024/01/19 01:14:12;;;;;;;6.38;4.20;;;-1.50;99.90;;;;;;5033631;28;20084;-67
2024/01/19 01:16:39;;;;;;;9.70;4.40;;;-1.50;99.90;;;;;;5034245;28;20041;-67
2024/01/19 01:19:06;;;;;;;8.10;3.92;;;-1.50;99.90;;;;;;5033432;28;20037;-67
2024/01/19 01:21:32;;;;;;;6.47;4.00;;;-1.50;99.90;;;;;;5033434;28;20195;-60
2024/01/19 01:23:59;;;;;;;6.18;4.15;;;-1.50;99.90;;;;;;5033565;28;20084;-60
2024/01/19 01:26:26;;;;;;;8.80;4.18;;;-1.50;99.90;;;;;;5033548;28;20045;-61
2024/01/19 01:28:53;;;;;;;6.93;4.32;;;-1.50;99.90;;;;;;5032211;28;20053;-60
2024/01/19 01:31:20;;;;;;;8.48;4.65;;;-1.50;99.90;;;;;;5033267;28;20043;-60
2024/01/19 01:33:47;;;;;;;7.47;4.15;;;-1.50;99.90;;;;;;5033082;28;20042;-61
2024/01/19 01:36:14;;;;;;;9.25;4.55;;;-1.50;99.90;;;;;;5031936;28;20069;-60
2024/01/19 01:38:41;;;;;;;11.98;4.53;;;-1.50;99.90;;;;;;5033107;28;20557;-60
2024/01/19 01:41:07;;;;;;;8.93;4.30;;;-1.50;99.90;;;;;;5033437;28;20363;-60
2024/01/19 01:43:34;;;;;;;7.57;4.35;;;-1.50;99.90;;;;;;5033091;28;20049;-66
2024/01/19 01:46:01;;;;;;;10.00;4.20;;;-1.50;99.90;;;;;;5033295;28;20041;-66
2024/01/19 01:48:28;;;;;;;7.05;4.18;;;-1.50;99.90;;;;;;5031554;28;20044;-67
2024/01/19 01:50:55;;;;;;;7.47;4.32;;;-1.50;99.90;;;;;;5033203;28;20041;-67
2024/01/19 01:53:22;;;;;;;8.95;4.75;;;-1.50;99.90;;;;;;5033448;28;20048;-67
2024/01/19 01:55:49;;;;;;;7.18;3.72;;;-1.50;99.90;;;;;;5033348;28;20069;-67
2024/01/19 01:58:16;;;;;;;8.30;4.10;;;-1.40;99.90;;;;;;5033283;28;20545;-67
2024/01/19 02:00:43;;;;;;;7.88;4.22;;;-1.40;99.90;;;;;;5033160;28;20120;-67
2024/01/19 02:03:10;;;;;;;7.85;4.43;;;-1.50;99.90;;;;;;5032070;28;20390;-67
2024/01/19 02:05:41;;;;;;;8.63;3.80;;;-1.40;99.90;;;;;;5033177;28;20111;-67
2024/01/19 02:08:08;;;;;;;6.78;4.22;;;-1.50;99.90;;;;;;5031896;28;20045;-66
2024/01/19 02:10:35;;;;;;;7.03;4.40;;;-1.40;99.90;;;;;;5033145;28;20120;-67
2024/01/19 02:13:02;;;;;;;7.40;4.47;;;-1.50;99.90;;;;;;5031625;28;20076;-67
2024/01/19 02:15:30;;;;;;;7.65;3.90;;;-1.50;99.90;;;;;;5015191;28;20045;-67
2024/01/19 02:17:57;;;;;;;9.40;4.35;;;-1.40;99.90;;;;;;5031787;28;20396;-67
2024/01/19 02:20:24;;;;;;;6.85;3.83;;;-1.50;99.90;;;;;;5032997;28;20132;-66
2024/01/19 02:22:51;;;;;;;8.20;4.32;;;-1.50;99.90;;;;;;5032698;28;20492;-64
2024/01/19 02:25:21;;;;;;;8.43;3.90;;;-1.50;99.90;;;;;;5031704;28;20103;-65
2024/01/19 02:27:48;;;;;;;7.90;3.83;;;-1.50;99.90;;;;;;5031680;28;20037;-65
2024/01/19 02:30:14;;;;;;;9.05;4.07;;;-1.50;99.90;;;;;;5033024;28;20056;-65
2024/01/19 02:32:41;;;;;;;6.13;4.13;;;-1.60;99.90;;;;;;5033056;28;20360;-61
2024/01/19 02:35:08;;;;;;;6.60;4.13;;;-1.60;99.90;;;;;;5032790;28;20037;-60
2024/01/19 02:37:35;;;;;;;6.20;3.78;;;-1.50;99.90;;;;;;5033009;28;20060;-61
2024/01/19 02:40:04;;;;;;;9.45;3.90;;;-1.50;99.90;;;;;;5031660;28;20046;-61
2024/01/19 02:42:31;;;;;;;9.48;3.60;;;-1.50;99.90;;;;;;5033056;28;20455;-61
2024/01/19 02:45:01;;;;;;;7.40;3.78;;;-1.50;99.90;;;;;;5031406;28;20099;-61
2024/01/19 02:47:28;;;;;;;8.13;3.78;;;-1.50;99.90;;;;;;5032631;28;20076;-60
2024/01/19 02:49:57;;;;;;;7.75;3.92;;;-1.60;99.90;;;;;;5032851;28;20124;-61
2024/01/19 02:52:24;;;;;;;6.22;3.90;;;-1.60;99.90;;;;;;5032665;28;20037;-60
2024/01/19 02:54:51;;;;;;;7.00;3.80;;;-1.50;99.90;;;;;;5032655;28;20042;-61
2024/01/19 02:57:18;;;;;;;5.45;3.33;;;-1.50;99.90;;;;;;5032598;28;20057;-61
2024/01/19 02:59:44;;;;;;;6.13;3.70;;;-1.50;99.90;;;;;;5031603;28;20042;-60
2024/01/19 03:02:12;;;;;;;9.20;3.80;;;-1.60;99.90;;;;;;5035084;28;20505;-61
2024/01/19 03:04:39;;;;;;;7.30;3.80;;;-1.60;99.90;;;;;;5036388;28;20045;-60
2024/01/19 03:07:06;;;;;;;6.60;3.40;;;-1.60;99.90;;;;;;5034959;28;20498;-61
2024/01/19 03:09:33;;;;;;;9.07;3.65;;;-1.60;99.90;;;;;;5036349;28;20048;-60
2024/01/19 03:11:59;;;;;;;6.18;3.25;;;-1.60;99.90;;;;;;5036148;28;20060;-61
2024/01/19 03:14:26;;;;;;;7.10;3.67;;;-1.60;99.90;;;;;;5035873;28;20051;-61
2024/01/19 03:16:53;;;;;;;7.43;3.70;;;-1.60;99.90;;;;;;5036171;28;20124;-61
2024/01/19 03:19:20;;;;;;;5.22;3.15;;;-1.70;99.90;;;;;;5035130;28;20041;-61
2024/01/19 03:21:47;;;;;;;6.05;3.53;;;-1.70;99.90;;;;;;5036100;28;20046;-61
2024/01/19 03:24:14;;;;;;;7.85;3.38;;;-1.70;99.90;;;;;;5034620;28;20484;-61
2024/01/19 03:26:42;;;;;;;5.90;3.97;;;-1.70;99.90;;;;;;5035903;28;20498;-60
2024/01/19 03:29:09;;;;;;;7.50;4.20;;;-1.70;99.90;;;;;;5034832;28;20111;-61
2024/01/19 03:31:36;;;;;;;7.28;3.60;;;-1.70;99.90;;;;;;5035567;28;20063;-61
2024/01/19 03:34:02;;;;;;;6.45;3.95;;;-1.80;99.90;;;;;;5018057;28;20486;-61
2024/01/19 03:36:29;;;;;;;7.75;3.78;;;-1.80;99.90;;;;;;5035564;28;20479;-60
2024/01/19 03:38:56;;;;;;;6.38;3.70;;;-1.90;99.90;;;;;;5035440;28;20088;-61
2024/01/19 03:41:23;;;;;;;6.35;3.53;;;-1.90;99.90;;;;;;5035384;28;20107;-61
2024/01/19 03:43:50;;;;;;;8.00;3.60;;;-2.00;99.90;;;;;;5033888;28;20272;-61
2024/01/19 03:46:16;;;;;;;7.72;3.70;;;-2.00;99.90;;;;;;5035156;28;20178;-60
2024/01/19 03:48:43;;;;;;;5.03;3.25;;;-2.00;99.90;;;;;;5033999;28;20053;-61
2024/01/19 03:51:10;;;;;;;6.43;3.58;;;-2.00;99.90;;;;;;5035176;28;20067;-60
2024/01/19 03:53:37;;;;;;;7.40;3.25;;;-2.00;99.90;;;;;;5035026;28;20081;-60
2024/01/19 03:56:04;;;;;;;7.57;3.90;;;-1.90;99.90;;;;;;5033588;28;20052;-60
2024/01/19 03:58:31;;;;;;;10.30;3.60;;;-1.90;99.90;;;;;;5034156;28;20037;-60
2024/01/19 04:00:57;;;;;;;6.75;3.30;;;-1.90;99.90;;;;;;5035153;28;20482;-60
2024/01/19 04:03:24;;;;;;;3.92;2.92;;;-1.90;99.90;;;;;;5035142;28;20137;-60
2024/01/19 04:05:51;;;;;;;6.65;3.40;;;-1.90;99.90;;;;;;5035626;28;20041;-60
2024/01/19 04:08:19;;;;;;;6.00;3.05;;;-1.80;99.90;;;;;;5035335;28;20045;-60
2024/01/19 04:10:46;;;;;;;6.78;3.28;;;-1.80;99.90;;;;;;5034102;28;20057;-61
2024/01/19 04:13:12;;;;;;;9.48;3.65;;;-1.80;99.90;;;;;;5034695;28;20072;-60
2024/01/19 04:15:39;;;;;;;8.55;3.13;;;-1.80;99.90;;;;;;5035191;28;20056;-60
2024/01/19 04:18:06;;;;;;;6.35;3.15;;;-1.80;99.90;;;;;;5034918;28;20084;-61
2024/01/19 04:20:33;;;;;;;4.25;2.83;;;-1.80;99.90;;;;;;5035134;28;20049;-60
2024/01/19 04:23:00;;;;;;;6.30;3.13;;;-1.80;99.90;;;;;;5033348;28;20045;-61
2024/01/19 04:25:27;;;;;;;5.97;3.13;;;-1.90;99.90;;;;;;5035133;28;20053;-60
2024/01/19 04:27:53;;;;;;;8.05;3.70;;;-1.80;99.90;;;;;;5034514;28;20053;-60
2024/01/19 04:30:20;;;;;;;5.90;3.38;;;-1.90;99.90;;;;;;5034992;28;20090;-60
2024/01/19 04:32:47;;;;;;;5.43;3.50;;;-1.90;99.90;;;;;;5034957;28;20052;-60
2024/01/19 04:35:14;;;;;;;6.35;3.55;;;-1.90;99.90;;;;;;5034911;28;20056;-60
2024/01/19 04:37:40;;;;;;;6.65;3.85;;;-2.00;99.90;;;;;;5034739;28;20112;-60
2024/01/19 04:40:07;;;;;;;5.22;3.45;;;-2.10;99.90;;;;;;5035006;28;20305;-60
2024/01/19 04:42:35;;;;;;;8.25;3.67;;;-2.10;99.90;;;;;;5034270;28;20103;-60
2024/01/19 04:45:03;;;;;;;6.75;3.53;;;-2.10;99.90;;;;;;5016697;28;20049;-60
2024/01/19 04:47:30;;;;;;;5.53;3.33;;;-2.20;99.90;;;;;;5033384;28;20041;-60
2024/01/19 04:49:58;;;;;;;6.95;3.30;;;-2.20;99.90;;;;;;5033873;28;20167;-60
2024/01/19 04:52:24;;;;;;;6.60;3.45;;;-2.20;99.90;;;;;;5033643;28;20528;-60
2024/01/19 04:54:51;;;;;;;5.68;3.53;;;-2.30;99.90;;;;;;5033946;28;20120;-61
2024/01/19 04:57:18;;;;;;;5.50;3.28;;;-2.30;99.90;;;;;;5033066;28;20045;-61
2024/01/19 04:59:45;;;;;;;6.03;3.47;;;-2.30;99.90;;;;;;5034153;28;20455;-67
2024/01/19 05:02:11;;;;;;;7.13;4.00;;;-2.40;99.90;;;;;;5034214;28;20037;-67
2024/01/19 05:04:42;;;;;;;9.07;4.65;;;-2.40;99.90;;;;;;5032897;28;20057;-61
2024/01/19 05:07:09;;;;;;;5.63;3.47;;;-2.40;99.90;;;;;;5034405;28;20045;-60
2024/01/19 05:09:36;;;;;;;6.47;4.10;;;-2.40;99.90;;;;;;5034476;28;20121;-61
2024/01/19 05:12:02;;;;;;;10.45;3.75;;;-2.40;99.90;;;;;;5034186;28;20103;-68
2024/01/19 05:14:29;;;;;;;10.88;3.63;;;-2.40;99.90;;;;;;5033013;28;20532;-67
2024/01/19 05:16:56;;;;;;;7.40;4.03;;;-2.50;99.90;;;;;;5032170;28;20077;-61
2024/01/19 05:19:23;;;;;;;6.07;3.78;;;-2.50;99.90;;;;;;5032139;28;20129;-61
2024/01/19 05:21:50;;;;;;;5.43;3.30;;;-2.40;99.90;;;;;;5032427;28;20041;-60
2024/01/19 05:24:16;;;;;;;7.93;3.85;;;-2.40;99.90;;;;;;5033216;28;20041;-60
2024/01/19 05:26:43;;;;;;;7.88;3.72;;;-2.40;99.90;;;;;;5033598;28;20052;-60
2024/01/19 05:29:10;;;;;;;8.13;4.10;;;-2.40;99.90;;;;;;5033676;28;20128;-60
2024/01/19 05:31:37;;;;;;;7.68;3.90;;;-2.50;99.90;;;;;;5033454;28;20063;-60
2024/01/19 05:34:04;;;;;;;6.60;3.88;;;-2.50;99.90;;;;;;5032276;28;20049;-60
2024/01/19 05:36:31;;;;;;;7.75;4.20;;;-2.60;99.90;;;;;;5033233;28;20041;-61
2024/01/19 05:38:58;;;;;;;7.57;3.72;;;-2.60;99.90;;;;;;5033149;28;20063;-61
2024/01/19 05:41:25;;;;;;;7.28;3.72;;;-2.60;99.90;;;;;;5031926;28;20042;-61
2024/01/19 05:43:52;;;;;;;9.25;4.40;;;-2.60;99.90;;;;;;5033108;28;20447;-61
2024/01/19 05:46:18;;;;;;;6.40;3.75;;;-2.60;99.90;;;;;;5033501;28;20417;-65
2024/01/19 05:48:45;;;;;;;7.40;4.10;;;-2.60;99.90;;;;;;5032373;28;20391;-65
2024/01/19 05:51:12;;;;;;;7.63;4.18;;;-2.70;99.90;;;;;;5033198;28;20069;-65
2024/01/19 05:53:39;;;;;;;7.88;4.32;;;-2.70;99.90;;;;;;5033175;28;20068;-65
2024/01/19 05:56:06;;;;;;;8.10;4.68;;;-2.70;99.90;;;;;;5033393;28;20057;-65
2024/01/19 05:58:33;;;;;;;8.50;4.15;;;-2.70;99.90;;;;;;5033366;28;20463;-65
2024/01/19 06:01:02;;;;;;;6.78;4.07;;;-2.70;99.90;;;;;;5031943;28;20410;-67
2024/01/19 06:03:35;;;;;;;6.80;4.15;;;-2.80;99.90;;;;;;5032981;28;20038;-67
2024/01/19 06:06:02;;;;;;;10.00;4.40;;;-2.80;99.90;;;;;;5033602;28;20537;-67
2024/01/19 06:08:29;;;;;;;6.20;3.80;;;-2.80;99.90;;;;;;5033064;28;20391;-67
2024/01/19 06:10:56;;;;;;;9.30;4.15;;;-2.80;99.90;;;;;;5032084;28;20548;-68
2024/01/19 06:13:23;;;;;;;7.60;4.38;;;-2.80;99.90;;;;;;5032604;28;20391;-67
2024/01/19 06:15:50;;;;;;;6.28;3.45;;;-2.90;99.90;;;;;;5031650;28;20471;-67
2024/01/19 06:18:17;;;;;;;7.45;4.53;;;-2.90;99.90;;;;;;5032292;28;20506;-67
2024/01/19 06:20:44;;;;;;;7.70;3.47;;;-2.80;99.90;;;;;;5033465;28;20041;-67
2024/01/19 06:23:11;;;;;;;7.72;4.00;;;-2.80;99.90;;;;;;5015084;28;20042;-67
2024/01/19 06:25:38;;;;;;;6.40;3.88;;;-2.80;99.90;;;;;;5033304;28;20120;-68
2024/01/19 06:28:06;;;;;;;7.18;3.88;;;-2.80;99.90;;;;;;5033221;28;20041;-68
2024/01/19 06:30:32;;;;;;;9.85;3.88;;;-2.80;99.90;;;;;;5033313;28;20522;-67
2024/01/19 06:32:59;;;;;;;8.77;3.70;;;-2.80;99.90;;;;;;5015587;28;20051;-66
2024/01/19 06:35:26;;;;;;;6.75;4.13;;;-2.80;99.90;;;;;;5033296;28;20041;-60
2024/01/19 06:37:53;;;;;;;6.32;3.67;;;-2.80;99.90;;;;;;5036835;28;20084;-61
2024/01/19 06:40:20;;;;;;;6.97;4.00;;;-2.90;99.90;;;;;;5036750;28;20490;-60
2024/01/19 06:42:47;;;;;;;7.22;4.07;;;-2.80;99.90;;;;;;5036876;28;20038;-65
2024/01/19 06:45:14;;;;;;;7.30;3.97;;;-2.90;99.90;;;;;;5036838;28;20049;-65
2024/01/19 06:47:41;;;;;;;9.57;4.40;;;-2.90;99.90;;;;;;5036950;28;20041;-65
2024/01/19 06:50:08;;;;;;;11.65;4.45;;;-2.90;99.90;;;;;;5035348;28;20037;-65
2024/01/19 06:52:35;;;;;;;7.15;4.10;;;-2.90;99.90;;;;;;5036583;28;20049;-66
2024/01/19 06:55:02;;;;;;;7.10;3.78;;;-2.90;99.90;;;;;;5035095;28;20045;-65
2024/01/19 06:57:29;;;;;;;6.85;4.55;;;-2.90;99.90;;;;;;5036465;28;20037;-66
2024/01/19 06:59:55;;;;;;;10.75;4.88;;;-2.90;99.90;;;;;;5036516;28;20034;-65
2024/01/19 07:02:23;;;;;;;8.48;4.40;;;-3.00;99.90;;;;;;5036869;28;20076;-66
2024/01/19 07:04:50;;;;;;;9.10;4.88;;;-3.00;99.90;;;;;;5036365;28;20057;-61
2024/01/19 07:07:18;;;;;;;11.85;4.80;;;-3.00;99.90;;;;;;5036288;28;20052;-65
2024/01/19 07:09:44;;;;;;;8.10;4.75;;;-3.00;99.90;;;;;;5036448;28;20107;-67
2024/01/19 07:12:12;;;;;;;9.50;4.80;;;-3.00;99.90;;;;;;5036541;28;20052;-63
2024/01/19 07:14:38;;;;;;;10.73;5.25;;;-3.00;99.90;;;;;;5035997;28;20064;-62
2024/01/19 07:17:05;;;;;;;10.55;5.35;;;-3.00;99.90;;;;;;5034718;28;20041;-62
2024/01/19 07:19:32;;;;;;;9.18;4.72;;;-3.00;99.90;;;;;;5035094;28;20128;-62
2024/01/19 07:21:59;;;;;;;8.40;4.30;;;-3.00;99.90;;;;;;5035955;28;20033;-66
2024/01/19 07:24:29;;;;;;;9.35;4.82;;;-3.00;99.90;;;;;;5034565;28;20044;-66
2024/01/19 07:26:56;;;;;;;9.82;5.28;;;-3.00;99.90;;;;;;5036045;28;20498;-66
2024/01/19 07:29:23;;;;;;;8.50;4.88;;;-3.00;99.90;;;;;;5035848;28;20045;-68
2024/01/19 07:31:50;;;;;;;11.52;6.50;;;-3.00;99.90;;;;;;5035487;28;20537;-68
2024/01/19 07:34:17;;;;;;;11.82;5.68;;;-3.00;99.90;;;;;;5035638;28;20045;-68
2024/01/19 07:36:45;;;;;;;11.57;6.30;;;-3.00;99.90;;;;;;5036001;28;20042;-68
2024/01/19 07:39:12;;;;;;;12.70;6.70;;;-3.00;99.90;;;;;;5035834;28;20091;-68
2024/01/19 07:41:38;;;;;;;12.40;7.80;;;-3.00;99.90;;;;;;5034264;28;20052;-68
2024/01/19 07:44:05;;;;;;;11.32;7.05;;;-3.00;99.90;;;;;;5018306;28;20391;-69
2024/01/19 07:46:34;;;;;;;14.02;7.82;;;-3.00;99.90;;;;;;5035050;28;20045;-69
2024/01/19 07:49:01;;;;;;;11.88;7.32;;;-3.00;99.90;;;;;;5035683;28;20045;-68
2024/01/19 07:51:28;;;;;;;13.63;6.80;;;-3.10;99.90;;;;;;5035378;28;20048;-68
2024/01/19 07:53:55;;;;;;;13.68;6.97;;;-3.00;99.90;;;;;;5035433;28;20191;-62
2024/01/19 07:56:22;;;;;;;11.18;7.75;;;-3.10;99.90;;;;;;5035152;28;20045;-62
2024/01/19 07:58:49;;;;;;;15.10;8.35;;;-3.10;99.90;;;;;;5035025;28;20053;-61
2024/01/19 08:01:15;;;;;;;12.52;8.02;;;-3.10;99.90;;;;;;5033845;28;20144;-61
2024/01/19 08:03:42;;;;;;;16.00;8.00;;;-3.10;99.90;;;;;;5035640;28;20096;-60
2024/01/19 08:06:09;;;;;;;13.70;8.13;;;-3.10;99.90;;;;;;5035234;28;20394;-61
2024/01/19 08:08:36;;;;;;;11.65;8.25;;;-3.10;99.90;;;;;;5035597;28;20041;-61
2024/01/19 08:11:03;;;;;;;15.48;8.48;;;-3.10;99.90;;;;;;5035151;28;20046;-60
2024/01/19 08:13:30;;;;;;;13.70;8.07;;;-3.10;99.90;;;;;;5034970;28;20156;-61
2024/01/19 08:15:57;;;;;;;19.95;9.07;;;-3.10;99.90;;;;;;5033635;28;20103;-61
2024/01/19 08:18:24;;;;;;;14.73;7.90;;;-3.10;99.90;;;;;;5033928;28;20356;-62
2024/01/19 08:20:51;;;;;;;14.93;8.63;;;-3.10;99.90;;;;;;5033910;28;20037;-61
2024/01/19 08:23:18;;;;;;;14.38;8.20;;;-3.10;99.90;;;;;;5033483;28;20068;-61
2024/01/19 08:25:45;;;;;;;16.02;8.60;;;-3.10;99.90;;;;;;5034783;28;20107;-62
2024/01/19 08:28:11;;;;;;;16.25;8.07;;;-3.10;99.90;;;;;;5034795;28;20045;-66
2024/01/19 08:30:38;;;;;;;16.65;8.65;;;-3.00;99.90;;;;;;5033340;28;20042;-62
2024/01/19 08:33:05;;;;;;;17.00;7.90;;;-3.00;99.90;;;;;;5033514;28;20363;-62
2024/01/19 08:35:32;;;;;;;12.68;7.45;;;-3.00;99.90;;;;;;5034332;28;20072;-62
2024/01/19 08:37:59;;;;;;;19.45;7.55;;;-2.90;99.90;;;;;;5033106;28;20134;-62
2024/01/19 08:40:26;;;;;;;14.38;7.05;;;-2.90;99.90;;;;;;5031747;28;20061;-69
2024/01/19 08:42:53;;;;;;;14.60;8.15;;;-2.90;99.90;;;;;;5031996;28;20049;-69
2024/01/19 08:45:19;;;;;;;13.35;8.05;;;-2.90;99.90;;;;;;5032524;28;20042;-70
2024/01/19 08:47:48;;;;;;;15.85;8.63;;;-2.90;99.90;;;;;;5033745;28;20469;-69
2024/01/19 08:50:15;;;;;;;18.02;8.73;;;-2.80;99.90;;;;;;5032170;28;20502;-69
2024/01/19 08:52:41;;;;;;;13.57;7.82;;;-2.80;99.90;;;;;;5033330;28;20041;-69
2024/01/19 08:55:08;;;;;;;20.02;8.07;;;-2.80;99.90;;;;;;5033391;28;20041;-70
2024/01/19 08:57:35;;;;;;;18.23;7.80;;;-2.80;99.90;;;;;;5031153;28;20068;-69
2024/01/19 09:00:04;;;;;;;13.40;8.07;;;-2.80;99.90;;;;;;5032924;28;20562;-61
2024/01/19 09:02:31;;;;;;;22.95;8.60;;;-2.70;99.90;;;;;;5032971;28;20060;-61
2024/01/19 09:04:58;;;;;;;14.43;8.15;;;-2.70;99.90;;;;;;5033429;28;20403;-61
2024/01/19 09:07:25;;;;;;;13.65;8.35;;;-2.70;99.90;;;;;;5032305;28;20047;-60
2024/01/19 09:09:52;;;;;;;16.92;8.80;;;-2.60;99.90;;;;;;5033237;28;20069;-61
2024/01/19 09:12:19;;;;;;;16.08;8.60;;;-2.60;99.90;;;;;;5033168;28;20041;-60
2024/01/19 09:14:46;;;;;;;12.95;6.07;;;-2.50;99.90;;;;;;5033022;28;20089;-61
2024/01/19 09:17:13;;;;;;;17.23;6.18;;;-2.50;99.90;;;;;;5033000;28;20041;-61
2024/01/19 09:19:40;;;;;;;9.90;5.53;;;-2.40;99.90;;;;;;5033106;28;20045;-61
2024/01/19 09:22:06;;;;;;;13.52;5.03;;;-2.30;99.90;;;;;;5032994;28;20247;-60
2024/01/19 09:24:33;;;;;;;8.48;4.45;;;-2.10;99.90;;;;;;5032906;28;20413;-61
2024/01/19 09:27:00;;;;;;;7.00;3.83;;;-2.00;99.90;;;;;;5034702;28;20055;-60
2024/01/19 09:29:27;;;;;;;12.73;4.65;;;-1.90;99.90;;;;;;5033073;28;20041;-61
2024/01/19 09:31:54;;;;;;;9.55;4.50;;;-1.80;99.90;;;;;;5032905;28;20041;-61
2024/01/19 09:34:21;;;;;;;9.73;4.40;;;-1.70;99.90;;;;;;5032751;28;20136;-61
2024/01/19 09:36:47;;;;;;;6.80;4.13;;;-1.60;99.90;;;;;;5025910;28;20497;-60
2024/01/19 09:39:14;;;;;;;4.93;3.80;;;-1.50;99.90;;;;;;5032580;28;20137;-61
2024/01/19 09:41:41;;;;;;;7.55;3.95;;;-1.40;99.90;;;;;;5031457;28;20091;-65
2024/01/19 09:44:08;;;;;;;6.65;3.95;;;-1.30;99.90;;;;;;5031663;28;20045;-64
2024/01/19 09:46:35;;;;;;;8.27;3.78;;;-1.30;99.90;;;;;;5032688;28;20103;-64
2024/01/19 09:49:02;;;;;;;7.78;3.90;;;-1.20;99.90;;;;;;5031303;28;20483;-64
2024/01/19 09:51:29;;;;;;;7.75;4.22;;;-1.10;99.90;;;;;;5032641;28;20052;-65
2024/01/19 09:53:56;;;;;;;11.15;3.97;;;-1.00;99.90;;;;;;5032618;28;20132;-65
2024/01/19 09:56:22;;;;;;;8.77;4.05;;;-1.00;99.90;;;;;;5032751;28;20041;-64
2024/01/19 09:58:49;;;;;;;11.38;4.00;;;-0.90;99.90;;;;;;5033132;28;20041;-64
2024/01/19 10:01:16;;;;;;;7.70;4.13;;;-0.80;99.90;;;;;;5032780;28;20037;-65
2024/01/19 10:03:43;;;;;;;12.05;4.70;;;-0.70;99.90;;;;;;5032819;28;20152;-64
2024/01/19 10:06:10;;;;;;;7.13;4.40;;;-0.60;99.90;;;;;;5031563;28;20379;-65
2024/01/19 10:08:38;;;;;;;9.27;4.30;;;-0.60;99.90;;;;;;5032560;28;20103;-64
2024/01/19 10:11:05;;;;;;;11.25;4.07;;;-0.50;99.90;;;;;;5031470;28;20045;-65
2024/01/19 10:13:32;;;;;;;9.65;4.03;;;-0.40;99.90;;;;;;5032461;28;20144;-65
2024/01/19 10:15:59;;;;;;;9.25;4.95;;;-0.30;99.90;;;;;;5032547;28;20041;-63
2024/01/19 10:18:26;;;;;;;8.18;3.80;;;-0.20;99.90;;;;;;5032749;28;20041;-62
2024/01/19 10:20:52;;;;;;;8.27;4.45;;;-0.10;99.90;;;;;;5032700;28;20041;-62
2024/01/19 10:23:19;;;;;;;8.05;3.60;;;0.00;99.90;;;;;;5032656;28;20390;-62
2024/01/19 10:25:46;;;;;;;8.63;4.47;;;0.10;99.90;;;;;;5032501;28;20378;-62
2024/01/19 10:28:13;;;;;;;6.78;3.10;;;0.20;99.90;;;;;;5032562;28;20037;-62
2024/01/19 10:30:40;;;;;;;7.63;2.95;;;0.20;99.90;;;;;;5031251;28;20038;-68
2024/01/19 10:33:08;;;;;;;6.38;3.83;;;0.30;99.90;;;;;;5032791;28;20041;-68
2024/01/19 10:35:37;;;;;;;10.65;4.15;;;0.40;99.90;;;;;;5032556;28;20044;-68
2024/01/19 10:38:07;;;;;;;10.18;3.80;;;0.60;99.90;;;;;;5031212;28;20136;-68
2024/01/19 10:40:34;;;;;;;6.18;3.72;;;0.70;99.90;;;;;;5032619;28;20055;-68
2024/01/19 10:43:01;;;;;;;8.60;3.50;;;0.80;99.90;;;;;;5032808;28;20037;-68
2024/01/19 10:45:28;;;;;;;5.57;2.92;;;0.90;99.90;;;;;;5032358;28;20033;-67
2024/01/19 10:47:55;;;;;;;7.57;3.10;;;0.90;99.90;;;;;;5031437;28;20041;-68
2024/01/19 10:50:24;;;;;;;6.88;3.33;;;1.00;99.90;;;;;;5032769;28;20049;-69
2024/01/19 10:52:54;;;;;;;7.88;2.97;;;1.00;99.90;;;;;;5032738;28;20486;-69
2024/01/19 10:55:21;;;;;;;6.90;3.03;;;1.10;99.90;;;;;;5032170;28;20038;-69
2024/01/19 10:57:47;;;;;;;6.53;3.45;;;1.10;99.90;;;;;;5032021;28;20065;-69
2024/01/19 11:00:15;;;;;;;8.30;3.00;;;1.20;99.90;;;;;;5030837;28;20371;-69
2024/01/19 11:02:41;;;;;;;7.85;3.50;;;1.30;99.90;;;;;;5032250;28;20537;-69
2024/01/19 11:05:08;;;;;;;6.30;3.03;;;1.30;99.90;;;;;;5032258;28;20516;-69
2024/01/19 11:07:35;;;;;;;7.20;3.30;;;1.40;99.90;;;;;;5031917;28;20045;-61
2024/01/19 11:10:02;;;;;;;6.80;3.33;;;1.40;99.90;;;;;;5031974;28;20045;-61
2024/01/19 11:12:29;;;;;;;10.50;3.80;;;1.50;99.90;;;;;;5030702;28;20072;-61
2024/01/19 11:14:55;;;;;;;8.18;3.13;;;1.50;99.90;;;;;;5032002;28;20053;-61
2024/01/19 11:17:22;;;;;;;11.57;3.78;;;1.60;99.90;;;;;;5030656;28;20041;-61
2024/01/19 11:19:49;;;;;;;6.45;3.05;;;1.70;99.90;;;;;;5031951;28;20041;-63
2024/01/19 11:22:16;;;;;;;7.60;3.28;;;1.70;99.90;;;;;;5034921;28;20406;-63
2024/01/19 11:24:45;;;;;;;8.52;3.22;;;1.80;99.90;;;;;;5034092;28;20052;-62
2024/01/19 11:27:11;;;;;;;8.85;3.13;;;1.90;99.90;;;;;;5035473;28;20129;-62
2024/01/19 11:29:38;;;;;;;6.80;2.90;;;1.90;99.90;;;;;;5035478;28;20049;-63
2024/01/19 11:32:05;;;;;;;9.35;3.40;;;2.00;99.90;;;;;;5034374;28;20930;-62
2024/01/19 11:34:32;;;;;;;9.15;2.85;;;2.00;99.90;;;;;;5035258;28;20053;-63
2024/01/19 11:36:59;;;;;;;4.47;2.45;;;2.10;99.90;;;;;;5033922;28;20045;-63
2024/01/19 11:39:25;;;;;;;7.63;3.10;;;2.20;99.90;;;;;;5034306;28;20052;-69
2024/01/19 11:41:52;;;;;;;7.32;2.45;;;2.20;99.90;;;;;;5035214;28;20046;-69
2024/01/19 11:44:19;;;;;;;5.18;2.28;;;2.20;99.90;;;;;;5034073;28;20045;-69
2024/01/19 11:46:46;;;;;;;7.35;2.50;;;2.20;99.90;;;;;;5035388;28;20057;-69
2024/01/19 11:49:14;;;;;;;4.45;2.60;;;2.30;99.90;;;;;;5034057;28;20388;-66
2024/01/19 11:51:41;;;;;;;6.47;2.25;;;2.30;99.90;;;;;;5033972;28;20053;-61
2024/01/19 11:54:08;;;;;;;6.22;2.72;;;2.40;99.90;;;;;;5035015;28;20401;-68
2024/01/19 11:56:37;;;;;;;7.88;2.97;;;2.40;99.90;;;;;;5034640;28;20121;-68
2024/01/19 11:59:03;;;;;;;9.02;3.00;;;2.40;99.90;;;;;;5033744;28;20033;-69
2024/01/19 12:01:30;;;;;;;7.55;2.30;;;2.50;99.90;;;;;;5020500;28;20030;-69
2024/01/19 12:03:57;;;;;;;8.40;2.00;;;2.50;99.90;;;;;;5034747;28;20164;-69
2024/01/19 12:06:24;;;;;;;4.18;2.20;;;2.60;99.90;;;;;;5034583;28;20116;-69
2024/01/19 12:08:51;;;;;;;4.93;2.33;;;2.60;99.90;;;;;;5033544;28;20037;-69
2024/01/19 12:11:18;;;;;;;6.07;2.10;;;2.70;99.90;;;;;;5026526;28;20139;-69
2024/01/19 12:13:45;;;;;;;4.20;2.15;;;2.80;99.90;;;;;;5026580;28;20046;-69
2024/01/19 12:16:21;;;;;;;8.52;2.42;;;2.80;99.90;;;;;;5033188;28;20389;-68
2024/01/19 12:18:48;;;;;;;8.20;2.50;;;2.90;99.90;;;;;;5033394;28;20037;-68
2024/01/19 12:21:15;;;;;;;6.85;2.08;;;3.00;99.90;;;;;;5034253;28;20042;-68
2024/01/19 12:23:42;;;;;;;5.10;2.20;;;3.00;99.90;;;;;;5032870;28;20049;-69
2024/01/19 12:26:09;;;;;;;5.90;2.20;;;3.00;99.90;;;;;;5034674;28;20120;-68
2024/01/19 12:28:35;;;;;;;7.18;2.30;;;3.10;99.90;;;;;;5033784;28;20049;-68
2024/01/19 12:31:03;;;;;;;5.95;2.30;;;3.20;99.90;;;;;;5033030;28;20049;-68
2024/01/19 12:33:30;;;;;;;6.55;2.40;;;3.20;99.90;;;;;;5032918;28;20042;-68
2024/01/19 12:35:58;;;;;;;6.40;2.30;;;3.30;99.90;;;;;;5033640;28;20073;-67
2024/01/19 12:38:24;;;;;;;6.93;2.50;;;3.30;99.90;;;;;;5034768;28;20052;-68
2024/01/19 12:40:51;;;;;;;5.82;2.05;;;3.30;99.90;;;;;;5032872;28;20057;-68
2024/01/19 12:43:18;;;;;;;6.00;2.65;;;3.40;99.90;;;;;;5033268;28;20111;-68